createdAt,value
2016-11-03T00:00:09.040Z,5.61
2016-11-03T00:01:07.513Z,5.53
2016-11-03T00:02:07.177Z,5.33
2016-11-03T00:03:07.834Z,5.22
2016-11-03T00:04:07.434Z,5.22
2016-11-03T00:05:07.038Z,5.08
2016-11-03T00:06:07.683Z,5.24
2016-11-03T00:07:07.328Z,5.30
2016-11-03T00:08:07.991Z,5.26
2016-11-03T00:09:07.600Z,5.15
2016-11-03T00:10:07.264Z,5.14
2016-11-03T00:11:07.937Z,5.42
2016-11-03T00:12:07.562Z,5.12
2016-11-03T00:13:07.265Z,5.30
2016-11-03T00:14:07.872Z,5.41
2016-11-03T00:15:07.524Z,5.53
2016-11-03T00:16:07.166Z,5.33
2016-11-03T00:17:07.892Z,5.45
2016-11-03T00:18:07.679Z,5.42
2016-11-03T00:19:07.268Z,5.51
2016-11-03T00:20:07.959Z,5.29
2016-11-03T00:21:07.574Z,5.32
2016-11-03T00:22:07.217Z,5.52
2016-11-03T00:23:08.105Z,5.47
2016-11-03T00:24:07.771Z,5.54
2016-11-03T00:25:07.404Z,5.36
2016-11-03T00:26:07.998Z,5.54
2016-11-03T00:27:07.690Z,5.70
2016-11-03T00:28:07.339Z,5.67
2016-11-03T00:29:08.002Z,5.55
2016-11-03T00:30:07.619Z,5.56
2016-11-03T00:31:07.321Z,5.22
2016-11-03T00:32:07.919Z,5.21
2016-11-03T00:33:07.606Z,5.30
2016-11-03T00:34:07.275Z,5.49
2016-11-03T00:35:07.849Z,5.64
2016-11-03T00:36:07.490Z,5.57
2016-11-03T00:37:07.122Z,5.34
2016-11-03T00:38:07.829Z,5.41
2016-11-03T00:39:07.456Z,5.50
2016-11-03T00:40:07.083Z,5.44
2016-11-03T00:41:07.785Z,5.31
2016-11-03T00:42:07.525Z,5.54
2016-11-03T00:43:07.135Z,5.38
2016-11-03T00:44:07.779Z,5.22
2016-11-03T00:45:07.397Z,5.49
2016-11-03T00:46:07.082Z,5.50
2016-11-03T00:47:07.713Z,5.27
2016-11-03T00:48:07.399Z,5.33
2016-11-03T00:49:08.094Z,5.20
2016-11-03T00:50:07.704Z,5.30
2016-11-03T00:51:07.316Z,5.30
2016-11-03T00:52:07.943Z,5.33
2016-11-03T00:53:07.616Z,5.16
2016-11-03T00:54:07.219Z,4.93
2016-11-03T00:55:07.927Z,5.14
2016-11-03T00:56:07.505Z,5.12
2016-11-03T00:57:07.150Z,5.12
2016-11-03T00:58:07.828Z,5.00
2016-11-03T00:59:07.521Z,5.21
2016-11-03T01:00:07.165Z,5.01
2016-11-03T01:01:07.774Z,5.13
2016-11-03T01:02:07.450Z,4.94
2016-11-03T01:03:07.133Z,4.89
2016-11-03T01:04:07.770Z,4.95
2016-11-03T01:05:07.451Z,4.98
2016-11-03T01:06:08.002Z,4.94
2016-11-03T01:07:07.676Z,5.19
2016-11-03T01:08:07.325Z,5.21
2016-11-03T01:09:07.953Z,4.94
2016-11-03T01:10:07.628Z,5.14
2016-11-03T01:11:07.255Z,5.04
2016-11-03T01:12:07.881Z,5.07
2016-11-03T01:13:07.554Z,5.19
2016-11-03T01:14:07.177Z,5.06
2016-11-03T01:15:07.891Z,5.15
2016-11-03T01:16:07.486Z,5.04
2016-11-03T01:17:07.220Z,4.91
2016-11-03T01:18:07.978Z,4.89
2016-11-03T01:19:07.574Z,5.08
2016-11-03T01:20:07.259Z,5.13
2016-11-03T01:21:08.959Z,5.10
2016-11-03T01:22:07.593Z,4.91
2016-11-03T01:23:07.164Z,4.81
2016-11-03T01:24:07.874Z,4.96
2016-11-03T01:25:07.453Z,4.73
2016-11-03T01:26:07.035Z,4.93
2016-11-03T01:27:07.707Z,5.02
2016-11-03T01:28:07.314Z,5.04
2016-11-03T01:29:08.008Z,4.86
2016-11-03T01:30:07.714Z,4.75
2016-11-03T01:31:08.798Z,4.83
2016-11-03T01:32:08.674Z,4.84
2016-11-03T01:33:07.258Z,4.73
2016-11-03T01:34:07.914Z,5.02
2016-11-03T01:35:07.598Z,4.84
2016-11-03T01:36:07.213Z,4.75
2016-11-03T01:37:07.859Z,4.77
2016-11-03T01:38:07.542Z,4.70
2016-11-03T01:39:07.169Z,4.58
2016-11-03T01:40:07.849Z,4.51
2016-11-03T01:41:07.461Z,4.44
2016-11-03T01:42:07.060Z,4.55
2016-11-03T01:43:07.699Z,4.59
2016-11-03T01:44:07.395Z,4.61
2016-11-03T01:45:07.068Z,4.66
2016-11-03T01:46:07.693Z,4.54
2016-11-03T01:47:07.335Z,4.48
2016-11-03T01:48:08.055Z,4.51
2016-11-03T01:49:07.699Z,4.46
2016-11-03T01:50:07.787Z,4.27
2016-11-03T01:51:08.015Z,4.33
2016-11-03T01:52:07.599Z,4.35
2016-11-03T01:53:07.261Z,4.43
2016-11-03T01:54:07.899Z,4.41
2016-11-03T01:55:07.561Z,4.42
2016-11-03T01:56:07.155Z,4.28
2016-11-03T01:57:07.794Z,4.37
2016-11-03T01:58:07.409Z,4.71
2016-11-03T01:59:07.997Z,4.53
2016-11-03T02:00:07.700Z,4.38
2016-11-03T02:01:07.341Z,4.40
2016-11-03T02:02:07.991Z,4.44
2016-11-03T02:03:07.670Z,4.38
2016-11-03T02:04:07.300Z,4.35
2016-11-03T02:05:07.979Z,4.16
2016-11-03T02:06:07.550Z,4.24
2016-11-03T02:07:07.221Z,4.18
2016-11-03T02:08:07.889Z,4.39
2016-11-03T02:09:07.503Z,4.42
2016-11-03T02:10:07.237Z,4.44
2016-11-03T02:11:07.920Z,4.42
2016-11-03T02:12:07.553Z,4.17
2016-11-03T02:13:07.162Z,4.00
2016-11-03T02:14:07.858Z,3.90
2016-11-03T02:15:07.497Z,4.02
2016-11-03T02:16:07.138Z,3.99
2016-11-03T02:17:07.822Z,4.06
2016-11-03T02:18:07.613Z,4.19
2016-11-03T02:19:07.255Z,4.07
2016-11-03T02:20:07.900Z,3.87
2016-11-03T02:21:07.518Z,3.91
2016-11-03T02:22:07.142Z,4.08
2016-11-03T02:23:07.826Z,4.15
2016-11-03T02:24:07.426Z,4.02
2016-11-03T02:25:07.105Z,3.98
2016-11-03T02:26:07.746Z,3.88
2016-11-03T02:27:07.423Z,3.84
2016-11-03T02:28:07.091Z,3.76
2016-11-03T02:29:07.729Z,3.70
2016-11-03T02:30:09.899Z,3.73
2016-11-03T02:31:08.028Z,3.73
2016-11-03T02:32:07.653Z,3.65
2016-11-03T02:33:07.383Z,3.92
2016-11-03T02:34:08.013Z,3.92
2016-11-03T02:35:07.706Z,3.76
2016-11-03T02:36:07.333Z,3.72
2016-11-03T02:37:07.958Z,3.86
2016-11-03T02:38:07.633Z,4.16
2016-11-03T02:39:07.241Z,4.24
2016-11-03T02:40:07.903Z,3.91
2016-11-03T02:41:07.451Z,3.89
2016-11-03T02:42:07.095Z,4.03
2016-11-03T02:43:07.821Z,3.92
2016-11-03T02:44:07.452Z,3.89
2016-11-03T02:45:07.075Z,3.94
2016-11-03T02:46:07.796Z,3.83
2016-11-03T02:47:07.395Z,4.20
2016-11-03T02:48:08.052Z,3.99
2016-11-03T02:49:07.672Z,4.12
2016-11-03T02:50:07.308Z,4.26
2016-11-03T02:51:08.007Z,4.13
2016-11-03T02:52:07.623Z,4.26
2016-11-03T02:53:07.262Z,4.04
2016-11-03T02:54:07.919Z,3.99
2016-11-03T02:55:07.551Z,4.12
2016-11-03T02:56:07.238Z,4.00
2016-11-03T02:57:07.837Z,4.14
2016-11-03T02:58:07.506Z,4.17
2016-11-03T02:59:08.275Z,4.13
2016-11-03T03:00:07.800Z,4.14
2016-11-03T03:01:07.550Z,3.99
2016-11-03T03:02:07.049Z,4.08
2016-11-03T03:03:07.766Z,4.08
2016-11-03T03:04:07.353Z,4.14
2016-11-03T03:05:08.029Z,4.14
2016-11-03T03:06:07.722Z,4.11
2016-11-03T03:07:07.340Z,4.08
2016-11-03T03:08:07.963Z,4.09
2016-11-03T03:09:07.638Z,4.25
2016-11-03T03:10:07.294Z,4.14
2016-11-03T03:11:08.057Z,4.25
2016-11-03T03:12:07.579Z,4.30
2016-11-03T03:13:07.201Z,4.47
2016-11-03T03:14:07.888Z,4.15
2016-11-03T03:15:07.523Z,4.19
2016-11-03T03:16:07.211Z,4.24
2016-11-03T03:17:07.872Z,4.43
2016-11-03T03:18:07.638Z,4.04
2016-11-03T03:19:07.312Z,4.03
2016-11-03T03:20:07.904Z,3.91
2016-11-03T03:21:07.609Z,3.96
2016-11-03T03:22:07.296Z,3.69
2016-11-03T03:23:07.969Z,3.77
2016-11-03T03:24:07.554Z,3.83
2016-11-03T03:25:07.285Z,3.74
2016-11-03T03:26:07.938Z,3.78
2016-11-03T03:27:07.508Z,3.68
2016-11-03T03:28:07.177Z,3.64
2016-11-03T03:29:07.801Z,3.80
2016-11-03T03:30:07.467Z,3.70
2016-11-03T03:31:07.066Z,3.61
2016-11-03T03:32:07.830Z,3.67
2016-11-03T03:33:07.438Z,3.61
2016-11-03T03:34:07.058Z,3.68
2016-11-03T03:35:07.750Z,3.90
2016-11-03T03:36:07.387Z,3.78
2016-11-03T03:37:08.006Z,3.73
2016-11-03T03:38:07.633Z,3.55
2016-11-03T03:39:07.296Z,3.75
2016-11-03T03:40:07.991Z,4.02
2016-11-03T03:41:07.620Z,3.92
2016-11-03T03:42:07.275Z,3.72
2016-11-03T03:43:07.868Z,3.59
2016-11-03T03:44:07.559Z,3.81
2016-11-03T03:45:07.231Z,4.03
2016-11-03T03:46:08.961Z,3.70
2016-11-03T03:47:07.510Z,3.44
2016-11-03T03:48:07.188Z,3.23
2016-11-03T03:49:07.804Z,3.37
2016-11-03T03:50:07.442Z,3.45
2016-11-03T03:51:07.086Z,3.24
2016-11-03T03:52:07.723Z,3.09
2016-11-03T03:53:07.304Z,3.09
2016-11-03T03:54:07.955Z,3.02
2016-11-03T03:55:07.597Z,3.14
2016-11-03T03:56:07.253Z,3.05
2016-11-03T03:57:07.973Z,3.14
2016-11-03T03:58:07.554Z,3.09
2016-11-03T03:59:08.337Z,3.08
2016-11-03T04:00:07.847Z,3.09
2016-11-03T04:01:07.546Z,3.13
2016-11-03T04:02:07.187Z,3.01
2016-11-03T04:03:07.847Z,2.97
2016-11-03T04:04:07.446Z,3.04
2016-11-03T04:05:07.073Z,2.94
2016-11-03T04:06:07.709Z,2.99
2016-11-03T04:07:07.405Z,3.02
2016-11-03T04:08:08.028Z,3.31
2016-11-03T04:09:07.770Z,3.32
2016-11-03T04:10:07.345Z,3.27
2016-11-03T04:11:07.981Z,3.37
2016-11-03T04:12:07.603Z,3.44
2016-11-03T04:13:07.259Z,3.45
2016-11-03T04:14:07.865Z,3.34
2016-11-03T04:15:07.498Z,3.44
2016-11-03T04:16:07.240Z,3.52
2016-11-03T04:17:07.430Z,3.40
2016-11-03T04:18:08.225Z,3.23
2016-11-03T04:19:07.709Z,3.15
2016-11-03T04:20:07.354Z,3.16
2016-11-03T04:21:08.016Z,3.24
2016-11-03T04:22:07.684Z,3.15
2016-11-03T04:23:07.339Z,3.10
2016-11-03T04:24:07.978Z,3.22
2016-11-03T04:25:07.629Z,3.45
2016-11-03T04:26:07.220Z,3.29
2016-11-03T04:27:07.931Z,3.35
2016-11-03T04:28:07.533Z,3.27
2016-11-03T04:29:07.203Z,3.15
2016-11-03T04:30:07.879Z,3.17
2016-11-03T04:31:07.535Z,3.25
2016-11-03T04:32:08.253Z,3.09
2016-11-03T04:33:07.738Z,3.13
2016-11-03T04:34:07.395Z,3.12
2016-11-03T04:35:07.983Z,3.22
2016-11-03T04:36:07.645Z,3.27
2016-11-03T04:37:07.272Z,3.32
2016-11-03T04:38:07.983Z,3.38
2016-11-03T04:39:07.539Z,3.38
2016-11-03T04:40:07.221Z,3.49
2016-11-03T04:41:07.866Z,3.60
2016-11-03T04:42:07.520Z,3.66
2016-11-03T04:43:07.215Z,3.72
2016-11-03T04:44:07.812Z,3.75
2016-11-03T04:45:07.474Z,3.74
2016-11-03T04:46:07.150Z,3.44
2016-11-03T04:47:07.778Z,3.11
2016-11-03T04:48:07.475Z,2.95
2016-11-03T04:49:07.075Z,3.07
2016-11-03T04:50:07.694Z,3.08
2016-11-03T04:51:07.325Z,3.04
2016-11-03T04:52:07.960Z,3.01
2016-11-03T04:53:07.661Z,3.04
2016-11-03T04:54:07.251Z,2.93
2016-11-03T04:55:07.915Z,3.06
2016-11-03T04:56:07.545Z,3.13
2016-11-03T04:57:07.202Z,3.11
2016-11-03T04:58:07.936Z,3.17
2016-11-03T04:59:07.528Z,3.09
2016-11-03T05:00:07.212Z,3.09
2016-11-03T05:01:07.833Z,3.18
2016-11-03T05:02:07.484Z,3.00
2016-11-03T05:03:07.194Z,3.02
2016-11-03T05:04:07.815Z,3.06
2016-11-03T05:05:07.462Z,3.00
2016-11-03T05:06:07.036Z,2.84
2016-11-03T05:07:07.710Z,2.94
2016-11-03T05:08:07.399Z,3.02
2016-11-03T05:09:08.009Z,3.13
2016-11-03T05:10:07.614Z,2.99
2016-11-03T05:11:07.294Z,3.16
2016-11-03T05:12:07.920Z,3.12
2016-11-03T05:13:07.655Z,3.00
2016-11-03T05:14:07.377Z,2.80
2016-11-03T05:15:07.873Z,2.80
2016-11-03T05:16:07.532Z,2.84
2016-11-03T05:17:07.246Z,2.71
2016-11-03T05:18:08.105Z,2.82
2016-11-03T05:19:07.668Z,2.70
2016-11-03T05:20:08.382Z,2.75
2016-11-03T05:21:07.987Z,2.67
2016-11-03T05:22:07.616Z,2.63
2016-11-03T05:23:07.243Z,2.61
2016-11-03T05:24:07.938Z,2.76
2016-11-03T05:25:10.036Z,2.70
2016-11-03T05:26:09.049Z,2.59
2016-11-03T05:27:07.650Z,2.57
2016-11-03T05:28:07.228Z,2.62
2016-11-03T05:29:07.918Z,2.69
2016-11-03T05:30:07.590Z,2.93
2016-11-03T05:31:07.219Z,3.00
2016-11-03T05:32:08.927Z,2.90
2016-11-03T05:33:07.563Z,2.94
2016-11-03T05:34:07.200Z,2.81
2016-11-03T05:35:07.808Z,2.81
2016-11-03T05:36:08.936Z,2.84
2016-11-03T05:37:07.105Z,2.89
2016-11-03T05:38:07.782Z,2.87
2016-11-03T05:39:07.380Z,2.76
2016-11-03T05:40:08.012Z,2.97
2016-11-03T05:41:07.646Z,2.93
2016-11-03T05:42:07.331Z,2.83
2016-11-03T05:43:07.940Z,2.78
2016-11-03T05:44:07.640Z,2.83
2016-11-03T05:45:07.218Z,2.80
2016-11-03T05:46:07.891Z,2.84
2016-11-03T05:47:07.563Z,2.93
2016-11-03T05:48:07.249Z,3.09
2016-11-03T05:49:07.888Z,3.14
2016-11-03T05:50:07.497Z,3.32
2016-11-03T05:51:07.119Z,3.41
2016-11-03T05:52:07.872Z,3.60
2016-11-03T05:53:07.439Z,3.67
2016-11-03T05:54:07.023Z,3.61
2016-11-03T05:55:07.690Z,3.41
2016-11-03T05:56:07.396Z,3.53
2016-11-03T05:57:08.001Z,3.59
2016-11-03T05:58:07.577Z,3.70
2016-11-03T05:59:07.347Z,3.80
2016-11-03T06:00:07.955Z,3.72
2016-11-03T06:01:07.603Z,3.78
2016-11-03T06:02:07.326Z,3.44
2016-11-03T06:03:07.991Z,3.38
2016-11-03T06:04:07.639Z,3.27
2016-11-03T06:05:07.246Z,3.22
2016-11-03T06:06:07.861Z,3.31
2016-11-03T06:07:07.501Z,3.21
2016-11-03T06:08:07.165Z,3.22
2016-11-03T06:09:07.826Z,3.47
2016-11-03T06:10:07.488Z,3.25
2016-11-03T06:11:07.087Z,3.27
2016-11-03T06:12:07.768Z,3.35
2016-11-03T06:13:07.476Z,3.37
2016-11-03T06:14:07.131Z,3.44
2016-11-03T06:15:07.733Z,3.65
2016-11-03T06:16:07.396Z,3.82
2016-11-03T06:17:07.173Z,3.97
2016-11-03T06:18:08.120Z,3.94
2016-11-03T06:19:07.551Z,3.81
2016-11-03T06:20:07.188Z,3.77
2016-11-03T06:21:07.805Z,3.89
2016-11-03T06:22:07.480Z,3.83
2016-11-03T06:23:07.085Z,3.70
2016-11-03T06:24:07.773Z,3.67
2016-11-03T06:25:07.383Z,3.78
2016-11-03T06:26:07.095Z,3.71
2016-11-03T06:27:07.743Z,3.93
2016-11-03T06:28:07.374Z,3.89
2016-11-03T06:29:08.020Z,3.90
2016-11-03T06:30:08.183Z,3.89
2016-11-03T06:31:07.262Z,3.98
2016-11-03T06:32:07.915Z,4.09
2016-11-03T06:33:07.521Z,4.00
2016-11-03T06:34:07.208Z,4.01
2016-11-03T06:35:07.833Z,4.02
2016-11-03T06:36:07.460Z,4.02
2016-11-03T06:37:07.109Z,3.99
2016-11-03T06:38:07.711Z,4.03
2016-11-03T06:39:07.420Z,4.07
2016-11-03T06:40:07.997Z,4.23
2016-11-03T06:41:08.080Z,4.25
2016-11-03T06:42:07.295Z,4.37
2016-11-03T06:43:07.941Z,4.25
2016-11-03T06:44:07.637Z,4.30
2016-11-03T06:45:07.249Z,4.27
2016-11-03T06:46:07.868Z,4.17
2016-11-03T06:47:07.519Z,4.22
2016-11-03T06:48:07.566Z,4.11
2016-11-03T06:49:07.905Z,4.25
2016-11-03T06:50:07.524Z,4.24
2016-11-03T06:51:07.200Z,4.33
2016-11-03T06:52:09.923Z,4.40
2016-11-03T06:53:07.465Z,4.42
2016-11-03T06:54:07.444Z,4.38
2016-11-03T06:55:07.750Z,4.38
2016-11-03T06:56:07.909Z,4.32
2016-11-03T06:57:07.037Z,4.44
2016-11-03T06:58:07.665Z,4.59
2016-11-03T06:59:07.398Z,4.42
2016-11-03T07:00:09.257Z,4.46
2016-11-03T07:01:07.665Z,4.47
2016-11-03T07:02:08.706Z,4.57
2016-11-03T07:03:07.913Z,4.68
2016-11-03T07:04:07.598Z,4.58
2016-11-03T07:05:07.193Z,4.58
2016-11-03T07:06:07.813Z,4.62
2016-11-03T07:07:07.445Z,4.74
2016-11-03T07:08:09.178Z,4.72
2016-11-03T07:09:07.829Z,4.80
2016-11-03T07:10:07.329Z,4.90
2016-11-03T07:11:07.961Z,4.88
2016-11-03T07:12:07.795Z,4.99
2016-11-03T07:13:07.255Z,4.88
2016-11-03T07:14:07.912Z,4.80
2016-11-03T07:15:07.509Z,4.87
2016-11-03T07:16:07.160Z,4.74
2016-11-03T07:17:07.909Z,4.74
2016-11-03T07:18:07.610Z,4.88
2016-11-03T07:19:07.289Z,4.81
2016-11-03T07:20:07.876Z,4.74
2016-11-03T07:21:07.562Z,4.72
2016-11-03T07:22:07.141Z,4.77
2016-11-03T07:23:07.786Z,4.85
2016-11-03T07:24:07.456Z,5.01
2016-11-03T07:25:07.057Z,4.99
2016-11-03T07:26:07.716Z,5.16
2016-11-03T07:27:07.325Z,5.06
2016-11-03T07:28:07.995Z,5.06
2016-11-03T07:29:07.715Z,5.15
2016-11-03T07:30:07.343Z,5.09
2016-11-03T07:31:08.025Z,5.06
2016-11-03T07:32:07.645Z,5.00
2016-11-03T07:33:07.322Z,5.01
2016-11-03T07:34:08.088Z,5.14
2016-11-03T07:35:07.645Z,5.02
2016-11-03T07:36:07.297Z,5.02
2016-11-03T07:37:07.931Z,5.24
2016-11-03T07:38:07.615Z,5.27
2016-11-03T07:39:14.797Z,5.24
2016-11-03T07:40:07.885Z,5.07
2016-11-03T07:41:07.484Z,5.16
2016-11-03T07:42:07.171Z,5.14
2016-11-03T07:43:07.766Z,5.13
2016-11-03T07:44:07.478Z,5.34
2016-11-03T07:45:07.132Z,5.29
2016-11-03T07:46:07.760Z,5.33
2016-11-03T07:47:07.400Z,5.26
2016-11-03T07:48:07.060Z,5.31
2016-11-03T07:49:07.872Z,5.34
2016-11-03T07:50:07.350Z,5.20
2016-11-03T07:51:07.941Z,4.99
2016-11-03T07:52:07.643Z,5.09
2016-11-03T07:53:07.310Z,4.83
2016-11-03T07:54:07.952Z,4.80
2016-11-03T07:55:07.553Z,4.85
2016-11-03T07:56:07.171Z,4.75
2016-11-03T07:57:07.819Z,4.96
2016-11-03T07:58:07.458Z,5.11
2016-11-03T07:59:07.169Z,5.21
2016-11-03T08:00:07.793Z,5.32
2016-11-03T08:01:07.437Z,5.40
2016-11-03T08:02:07.085Z,5.35
2016-11-03T08:03:07.685Z,5.48
2016-11-03T08:04:07.479Z,5.64
2016-11-03T08:05:08.007Z,5.52
2016-11-03T08:06:07.690Z,5.32
2016-11-03T08:07:07.264Z,5.39
2016-11-03T08:08:07.930Z,5.47
2016-11-03T08:09:07.597Z,5.31
2016-11-03T08:10:07.239Z,5.46
2016-11-03T08:11:07.862Z,5.38
2016-11-03T08:12:07.499Z,5.50
2016-11-03T08:13:13.837Z,5.60
2016-11-03T08:14:08.971Z,5.58
2016-11-03T08:15:07.496Z,5.75
2016-11-03T08:16:07.168Z,5.72
2016-11-03T08:17:07.872Z,5.49
2016-11-03T08:18:07.630Z,5.48
2016-11-03T08:19:07.307Z,5.62
2016-11-03T08:20:07.987Z,5.60
2016-11-03T08:21:07.567Z,5.73
2016-11-03T08:22:07.266Z,5.74
2016-11-03T08:23:07.876Z,5.85
2016-11-03T08:24:07.657Z,5.90
2016-11-03T08:25:07.335Z,5.81
2016-11-03T08:26:07.919Z,5.76
2016-11-03T08:27:07.610Z,5.73
2016-11-03T08:28:07.220Z,5.66
2016-11-03T08:29:07.827Z,5.50
2016-11-03T08:30:07.503Z,5.59
2016-11-03T08:31:07.154Z,5.79
2016-11-03T08:32:07.739Z,5.93
2016-11-03T08:33:07.388Z,5.99
2016-11-03T08:34:07.069Z,6.09
2016-11-03T08:35:07.742Z,5.78
2016-11-03T08:36:08.455Z,5.96
2016-11-03T08:37:07.977Z,6.12
2016-11-03T08:38:07.645Z,5.82
2016-11-03T08:39:07.281Z,5.98
2016-11-03T08:40:07.992Z,5.97
2016-11-03T08:41:07.647Z,6.05
2016-11-03T08:42:07.237Z,5.62
2016-11-03T08:43:07.941Z,5.59
2016-11-03T08:44:07.551Z,5.69
2016-11-03T08:45:08.311Z,5.65
2016-11-03T08:46:07.859Z,5.70
2016-11-03T08:47:07.516Z,5.74
2016-11-03T08:48:07.170Z,5.92
2016-11-03T08:49:07.865Z,6.01
2016-11-03T08:50:07.547Z,6.13
2016-11-03T08:51:07.128Z,6.13
2016-11-03T08:52:07.759Z,6.18
2016-11-03T08:53:07.396Z,6.02
2016-11-03T08:54:07.023Z,6.15
2016-11-03T08:55:07.685Z,6.35
2016-11-03T08:56:07.389Z,6.48
2016-11-03T08:57:07.951Z,6.23
2016-11-03T08:58:07.656Z,6.01
2016-11-03T08:59:07.285Z,6.04
2016-11-03T09:00:07.945Z,6.09
2016-11-03T09:01:07.614Z,6.32
2016-11-03T09:02:07.619Z,6.56
2016-11-03T09:03:07.266Z,6.23
2016-11-03T09:04:08.002Z,6.05
2016-11-03T09:05:07.585Z,6.05
2016-11-03T09:06:07.286Z,6.29
2016-11-03T09:07:07.925Z,6.49
2016-11-03T09:08:07.560Z,6.54
2016-11-03T09:09:07.185Z,6.69
2016-11-03T09:10:07.869Z,6.19
2016-11-03T09:11:07.589Z,6.24
2016-11-03T09:12:07.209Z,6.36
2016-11-03T09:13:07.848Z,6.16
2016-11-03T09:14:07.479Z,6.36
2016-11-03T09:15:07.123Z,6.49
2016-11-03T09:16:07.869Z,6.65
2016-11-03T09:17:07.524Z,6.69
2016-11-03T09:18:07.265Z,6.24
2016-11-03T09:19:08.020Z,6.40
2016-11-03T09:20:07.612Z,6.36
2016-11-03T09:21:07.270Z,6.53
2016-11-03T09:22:07.908Z,6.54
2016-11-03T09:23:07.508Z,6.72
2016-11-03T09:24:07.161Z,6.65
2016-11-03T09:25:07.812Z,6.75
2016-11-03T09:26:07.494Z,6.66
2016-11-03T09:27:07.241Z,6.96
2016-11-03T09:28:08.836Z,7.03
2016-11-03T09:29:07.436Z,7.13
2016-11-03T09:30:07.069Z,7.23
2016-11-03T09:31:07.737Z,7.30
2016-11-03T09:32:07.391Z,7.04
2016-11-03T09:33:07.042Z,7.12
2016-11-03T09:34:07.716Z,7.14
2016-11-03T09:35:07.683Z,6.88
2016-11-03T09:36:07.025Z,7.05
2016-11-03T09:37:07.712Z,6.58
2016-11-03T09:38:07.334Z,6.84
2016-11-03T09:39:07.936Z,6.84
2016-11-03T09:40:07.641Z,6.70
2016-11-03T09:41:07.342Z,6.81
2016-11-03T09:42:07.089Z,6.89
2016-11-03T09:43:07.666Z,6.91
2016-11-03T09:44:07.312Z,6.84
2016-11-03T09:45:07.974Z,6.81
2016-11-03T09:46:07.639Z,6.74
2016-11-03T09:47:07.264Z,6.87
2016-11-03T09:48:07.932Z,6.68
2016-11-03T09:49:07.626Z,6.69
2016-11-03T09:50:07.236Z,6.67
2016-11-03T09:51:07.908Z,6.94
2016-11-03T09:52:07.541Z,7.04
2016-11-03T09:53:07.196Z,6.65
2016-11-03T09:54:07.888Z,6.88
2016-11-03T09:55:07.509Z,7.07
2016-11-03T09:56:07.249Z,7.12
2016-11-03T09:57:07.848Z,7.19
2016-11-03T09:58:07.482Z,7.35
2016-11-03T09:59:07.221Z,7.03
2016-11-03T10:00:07.823Z,7.12
2016-11-03T10:01:07.488Z,7.28
2016-11-03T10:02:07.144Z,7.28
2016-11-03T10:03:07.789Z,7.29
2016-11-03T10:04:07.864Z,7.29
2016-11-03T10:05:07.103Z,7.22
2016-11-03T10:06:07.739Z,7.23
2016-11-03T10:07:07.338Z,7.02
2016-11-03T10:08:07.027Z,7.03
2016-11-03T10:09:07.776Z,6.97
2016-11-03T10:10:07.330Z,7.11
2016-11-03T10:11:08.035Z,7.05
2016-11-03T10:12:07.731Z,6.92
2016-11-03T10:13:07.448Z,7.00
2016-11-03T10:14:07.216Z,7.13
2016-11-03T10:15:07.716Z,7.20
2016-11-03T10:16:08.500Z,7.15
2016-11-03T10:17:08.175Z,7.27
2016-11-03T10:18:07.833Z,7.24
2016-11-03T10:19:07.544Z,7.28
2016-11-03T10:20:07.384Z,7.37
2016-11-03T10:21:07.796Z,7.19
2016-11-03T10:22:07.430Z,7.23
2016-11-03T10:23:07.036Z,7.34
2016-11-03T10:24:07.709Z,7.45
2016-11-03T10:25:07.395Z,7.40
2016-11-03T10:26:07.277Z,7.52
2016-11-03T10:27:07.773Z,7.49
2016-11-03T10:28:07.623Z,7.14
2016-11-03T10:29:07.082Z,7.11
2016-11-03T10:30:07.742Z,7.06
2016-11-03T10:31:07.321Z,6.93
2016-11-03T10:32:08.255Z,6.71
2016-11-03T10:33:07.687Z,6.84
2016-11-03T10:34:07.332Z,6.94
2016-11-03T10:35:07.982Z,7.10
2016-11-03T10:36:07.640Z,6.84
2016-11-03T10:37:07.257Z,6.82
2016-11-03T10:38:07.910Z,6.92
2016-11-03T10:39:07.564Z,6.91
2016-11-03T10:40:07.213Z,7.06
2016-11-03T10:41:07.887Z,7.14
2016-11-03T10:42:07.573Z,7.28
2016-11-03T10:43:07.624Z,7.20
2016-11-03T10:44:07.798Z,7.28
2016-11-03T10:45:07.465Z,7.30
2016-11-03T10:46:07.135Z,7.28
2016-11-03T10:47:07.717Z,7.36
2016-11-03T10:48:07.433Z,7.27
2016-11-03T10:49:07.003Z,7.24
2016-11-03T10:50:07.672Z,7.15
2016-11-03T10:51:07.353Z,7.15
2016-11-03T10:52:07.929Z,7.09
2016-11-03T10:53:07.615Z,7.09
2016-11-03T10:54:07.213Z,7.23
2016-11-03T10:55:07.965Z,7.28
2016-11-03T10:56:07.525Z,7.23
2016-11-03T10:57:07.178Z,7.28
2016-11-03T10:58:07.855Z,7.36
2016-11-03T10:59:07.468Z,7.28
2016-11-03T11:00:07.110Z,7.28
2016-11-03T11:01:07.766Z,7.31
2016-11-03T11:02:07.441Z,7.35
2016-11-03T11:03:07.038Z,7.33
2016-11-03T11:04:07.747Z,7.39
2016-11-03T11:05:07.345Z,7.32
2016-11-03T11:06:08.020Z,7.26
2016-11-03T11:07:07.626Z,7.34
2016-11-03T11:08:07.374Z,7.42
2016-11-03T11:09:07.940Z,7.42
2016-11-03T11:10:07.515Z,7.53
2016-11-03T11:11:08.227Z,7.65
2016-11-03T11:12:15.062Z,7.71
2016-11-03T11:13:07.844Z,7.71
2016-11-03T11:14:07.593Z,7.82
2016-11-03T11:15:07.217Z,7.89
2016-11-03T11:16:07.991Z,7.92
2016-11-03T11:17:07.829Z,7.93
2016-11-03T11:18:07.575Z,8.01
2016-11-03T11:19:07.247Z,8.04
2016-11-03T11:20:07.990Z,8.16
2016-11-03T11:21:07.869Z,8.06
2016-11-03T11:22:07.611Z,8.04
2016-11-03T11:23:07.432Z,8.02
2016-11-03T11:24:08.182Z,7.98
2016-11-03T11:25:08.172Z,7.82
2016-11-03T11:26:07.892Z,7.85
2016-11-03T11:27:07.628Z,7.90
2016-11-03T11:28:07.303Z,7.94
2016-11-03T11:29:08.158Z,8.08
2016-11-03T11:30:07.692Z,8.12
2016-11-03T11:31:07.854Z,8.23
2016-11-03T11:32:07.293Z,8.36
2016-11-03T11:33:08.008Z,8.44
2016-11-03T11:34:07.821Z,8.46
2016-11-03T11:35:08.802Z,8.42
2016-11-03T11:36:07.536Z,8.40
2016-11-03T11:37:07.466Z,8.04
2016-11-03T11:38:07.757Z,8.23
2016-11-03T11:39:07.809Z,8.26
2016-11-03T11:40:07.672Z,8.34
2016-11-03T11:41:07.415Z,8.42
2016-11-03T11:42:08.309Z,8.54
2016-11-03T11:43:07.406Z,8.61
2016-11-03T11:44:08.123Z,8.61
2016-11-03T11:45:07.861Z,8.71
2016-11-03T11:46:07.580Z,8.74
2016-11-03T11:47:07.209Z,8.76
2016-11-03T11:48:08.039Z,8.83
2016-11-03T11:49:07.679Z,8.87
2016-11-03T11:50:07.388Z,8.99
2016-11-03T11:51:07.928Z,9.00
2016-11-03T11:52:08.144Z,9.00
2016-11-03T11:53:07.569Z,9.05
2016-11-03T11:54:08.278Z,9.00
2016-11-03T11:55:08.157Z,9.07
2016-11-03T11:56:07.990Z,9.12
2016-11-03T11:57:07.912Z,9.07
2016-11-03T11:58:07.715Z,9.13
2016-11-03T11:59:08.228Z,9.23
2016-11-03T12:00:07.964Z,9.11
2016-11-03T12:01:07.814Z,9.19
2016-11-03T12:02:07.525Z,9.08
2016-11-03T12:03:08.376Z,9.13
2016-11-03T12:04:07.727Z,9.04
2016-11-03T12:05:07.392Z,8.92
2016-11-03T12:06:17.442Z,8.89
2016-11-03T12:07:07.223Z,8.67
2016-11-03T12:08:07.964Z,8.67
2016-11-03T12:09:08.076Z,8.50
2016-11-03T12:10:08.173Z,8.53
2016-11-03T12:11:07.822Z,8.59
2016-11-03T12:12:07.995Z,8.13
2016-11-03T12:13:07.703Z,8.30
2016-11-03T12:14:07.528Z,8.53
2016-11-03T12:15:08.342Z,8.76
2016-11-03T12:16:08.254Z,8.86
2016-11-03T12:17:08.147Z,8.94
2016-11-03T12:18:07.239Z,9.09
2016-11-03T12:19:07.937Z,8.98
2016-11-03T12:20:08.099Z,8.80
2016-11-03T12:21:07.929Z,8.93
2016-11-03T12:22:07.600Z,8.89
2016-11-03T12:23:07.211Z,8.96
2016-11-03T12:24:07.866Z,9.15
2016-11-03T12:25:07.576Z,9.22
2016-11-03T12:26:08.211Z,9.34
2016-11-03T12:27:07.879Z,9.32
2016-11-03T12:28:07.619Z,9.35
2016-11-03T12:29:08.114Z,9.36
2016-11-03T12:30:07.838Z,9.27
2016-11-03T12:31:08.354Z,8.91
2016-11-03T12:32:07.336Z,8.89
2016-11-03T12:33:08.081Z,9.07
2016-11-03T12:34:07.934Z,9.12
2016-11-03T12:35:07.533Z,9.20
2016-11-03T12:36:08.113Z,9.38
2016-11-03T12:37:07.684Z,9.54
2016-11-03T12:38:07.411Z,9.57
2016-11-03T12:39:09.161Z,9.57
2016-11-03T12:40:07.898Z,9.57
2016-11-03T12:41:07.507Z,9.67
2016-11-03T12:42:08.093Z,9.47
2016-11-03T12:43:07.614Z,9.59
2016-11-03T12:44:07.274Z,9.66
2016-11-03T12:45:07.904Z,9.47
2016-11-03T12:46:07.509Z,9.26
2016-11-03T12:47:08.080Z,9.27
2016-11-03T12:48:07.665Z,9.39
2016-11-03T12:49:07.364Z,9.43
2016-11-03T12:50:07.944Z,9.40
2016-11-03T12:51:07.420Z,9.45
2016-11-03T12:52:08.081Z,9.52
2016-11-03T12:53:07.997Z,9.55
2016-11-03T12:54:08.552Z,9.64
2016-11-03T12:55:07.297Z,9.71
2016-11-03T12:56:08.003Z,9.86
2016-11-03T12:57:07.571Z,9.93
2016-11-03T12:58:08.465Z,9.68
2016-11-03T12:59:08.106Z,9.22
2016-11-03T13:00:08.136Z,9.32
2016-11-03T13:01:07.646Z,9.47
2016-11-03T13:02:07.177Z,9.57
2016-11-03T13:03:07.657Z,9.34
2016-11-03T13:04:07.139Z,9.22
2016-11-03T13:05:07.799Z,9.11
2016-11-03T13:06:07.382Z,9.44
2016-11-03T13:07:08.011Z,9.87
2016-11-03T13:08:07.269Z,10.09
2016-11-03T13:09:07.934Z,10.10
2016-11-03T13:10:07.517Z,10.00
2016-11-03T13:11:08.087Z,9.91
2016-11-03T13:12:07.997Z,9.85
2016-11-03T13:13:07.540Z,9.76
2016-11-03T13:14:07.696Z,9.73
2016-11-03T13:15:07.221Z,9.47
2016-11-03T13:16:07.791Z,9.87
2016-11-03T13:17:07.428Z,9.93
2016-11-03T13:18:08.212Z,9.92